TAF Text Data
IDs:
Format:
Raw Decoded Include METAR

Data at: 0754 UTC 27 Feb 2020

KTUP 270532Z 2706/2806 34008KT P6SM SKC
  FM271500 32007KT P6SM SKC
  FM272000 27010G15KT P6SM SKC
  FM280000 VRB03KT P6SM BKN250